sensor_id;sensor_type;location;lat;lon;timestamp;P1;durP1;ratioP1;P2;durP2;ratioP2
70313;SDS011;57725;47.526;18.986;2023-03-23T00:01:03;11.20;;;6.03;;
70313;SDS011;57725;47.526;18.986;2023-03-23T00:03:30;6.57;;;5.05;;
70313;SDS011;57725;47.526;18.986;2023-03-23T00:05:59;7.18;;;4.88;;
70313;SDS011;57725;47.526;18.986;2023-03-23T00:08:34;8.13;;;5.00;;
70313;SDS011;57725;47.526;18.986;2023-03-23T00:11:10;6.65;;;4.93;;
70313;SDS011;57725;47.526;18.986;2023-03-23T00:13:39;7.72;;;5.22;;
70313;SDS011;57725;47.526;18.986;2023-03-23T00:16:09;7.65;;;5.05;;
70313;SDS011;57725;47.526;18.986;2023-03-23T00:18:44;7.10;;;5.03;;
70313;SDS011;57725;47.526;18.986;2023-03-23T00:21:17;8.60;;;5.80;;
70313;SDS011;57725;47.526;18.986;2023-03-23T00:24:19;7.85;;;5.43;;
70313;SDS011;57725;47.526;18.986;2023-03-23T00:26:45;6.28;;;4.60;;
70313;SDS011;57725;47.526;18.986;2023-03-23T00:29:16;8.27;;;4.88;;
70313;SDS011;57725;47.526;18.986;2023-03-23T00:34:15;7.65;;;4.90;;
70313;SDS011;57725;47.526;18.986;2023-03-23T00:36:49;10.60;;;5.57;;
70313;SDS011;57725;47.526;18.986;2023-03-23T00:39:16;6.55;;;4.60;;
70313;SDS011;57725;47.526;18.986;2023-03-23T00:41:45;8.20;;;5.03;;
70313;SDS011;57725;47.526;18.986;2023-03-23T00:44:12;7.32;;;5.18;;
70313;SDS011;57725;47.526;18.986;2023-03-23T00:46:41;7.95;;;5.25;;
70313;SDS011;57725;47.526;18.986;2023-03-23T00:49:23;7.00;;;4.93;;
70313;SDS011;57725;47.526;18.986;2023-03-23T00:51:54;8.60;;;5.25;;
70313;SDS011;57725;47.526;18.986;2023-03-23T00:54:23;7.97;;;5.10;;
70313;SDS011;57725;47.526;18.986;2023-03-23T00:56:49;8.70;;;5.28;;
70313;SDS011;57725;47.526;18.986;2023-03-23T00:59:17;7.65;;;5.28;;
70313;SDS011;57725;47.526;18.986;2023-03-23T01:01:46;8.27;;;4.90;;
70313;SDS011;57725;47.526;18.986;2023-03-23T01:04:12;6.03;;;4.32;;
70313;SDS011;57725;47.526;18.986;2023-03-23T01:06:43;8.32;;;5.15;;
70313;SDS011;57725;47.526;18.986;2023-03-23T01:09:13;8.25;;;5.40;;
70313;SDS011;57725;47.526;18.986;2023-03-23T01:11:43;9.23;;;5.03;;
70313;SDS011;57725;47.526;18.986;2023-03-23T01:14:15;7.32;;;4.93;;
70313;SDS011;57725;47.526;18.986;2023-03-23T01:16:42;7.22;;;4.40;;
70313;SDS011;57725;47.526;18.986;2023-03-23T01:19:07;8.15;;;4.90;;
70313;SDS011;57725;47.526;18.986;2023-03-23T01:21:33;6.75;;;5.07;;
70313;SDS011;57725;47.526;18.986;2023-03-23T01:24:01;8.45;;;5.68;;
70313;SDS011;57725;47.526;18.986;2023-03-23T01:26:27;8.00;;;4.75;;
70313;SDS011;57725;47.526;18.986;2023-03-23T01:28:55;6.93;;;4.53;;
70313;SDS011;57725;47.526;18.986;2023-03-23T01:31:22;7.53;;;4.90;;
70313;SDS011;57725;47.526;18.986;2023-03-23T01:33:49;7.72;;;5.15;;
70313;SDS011;57725;47.526;18.986;2023-03-23T01:36:19;6.82;;;4.28;;
70313;SDS011;57725;47.526;18.986;2023-03-23T01:38:51;9.30;;;5.13;;
70313;SDS011;57725;47.526;18.986;2023-03-23T01:41:21;6.47;;;4.47;;
70313;SDS011;57725;47.526;18.986;2023-03-23T01:46:29;7.50;;;5.05;;
70313;SDS011;57725;47.526;18.986;2023-03-23T01:49:06;7.07;;;4.45;;
70313;SDS011;57725;47.526;18.986;2023-03-23T01:51:35;7.40;;;4.38;;
70313;SDS011;57725;47.526;18.986;2023-03-23T01:54:06;6.07;;;4.45;;
70313;SDS011;57725;47.526;18.986;2023-03-23T01:56:42;7.80;;;4.80;;
70313;SDS011;57725;47.526;18.986;2023-03-23T01:59:14;6.65;;;4.53;;
70313;SDS011;57725;47.526;18.986;2023-03-23T02:01:40;6.78;;;4.32;;
70313;SDS011;57725;47.526;18.986;2023-03-23T02:04:12;7.22;;;4.65;;
70313;SDS011;57725;47.526;18.986;2023-03-23T02:06:40;7.80;;;5.25;;
70313;SDS011;57725;47.526;18.986;2023-03-23T02:09:06;6.57;;;4.15;;
70313;SDS011;57725;47.526;18.986;2023-03-23T02:11:32;6.70;;;4.25;;
70313;SDS011;57725;47.526;18.986;2023-03-23T02:13:58;7.38;;;4.88;;
70313;SDS011;57725;47.526;18.986;2023-03-23T02:38:42;6.38;;;4.22;;
70313;SDS011;57725;47.526;18.986;2023-03-23T02:41:22;6.82;;;4.22;;
70313;SDS011;57725;47.526;18.986;2023-03-23T02:43:56;5.35;;;4.05;;
70313;SDS011;57725;47.526;18.986;2023-03-23T02:46:29;6.93;;;4.63;;
70313;SDS011;57725;47.526;18.986;2023-03-23T02:49:00;7.38;;;4.30;;
70313;SDS011;57725;47.526;18.986;2023-03-23T02:51:31;6.20;;;4.03;;
70313;SDS011;57725;47.526;18.986;2023-03-23T02:53:59;7.22;;;4.47;;
70313;SDS011;57725;47.526;18.986;2023-03-23T02:56:29;7.93;;;4.25;;
70313;SDS011;57725;47.526;18.986;2023-03-23T02:58:58;5.90;;;4.45;;
70313;SDS011;57725;47.526;18.986;2023-03-23T03:03:57;6.75;;;4.18;;
70313;SDS011;57725;47.526;18.986;2023-03-23T03:06:32;6.10;;;3.72;;
70313;SDS011;57725;47.526;18.986;2023-03-23T03:11:47;7.13;;;4.63;;
70313;SDS011;57725;47.526;18.986;2023-03-23T03:14:42;5.75;;;3.90;;
70313;SDS011;57725;47.526;18.986;2023-03-23T03:17:24;6.20;;;3.63;;
70313;SDS011;57725;47.526;18.986;2023-03-23T03:19:55;6.15;;;4.28;;
70313;SDS011;57725;47.526;18.986;2023-03-23T03:22:24;5.85;;;4.05;;
70313;SDS011;57725;47.526;18.986;2023-03-23T03:24:53;6.05;;;3.97;;
70313;SDS011;57725;47.526;18.986;2023-03-23T03:27:26;7.03;;;4.30;;
70313;SDS011;57725;47.526;18.986;2023-03-23T03:29:54;6.72;;;4.40;;
70313;SDS011;57725;47.526;18.986;2023-03-23T03:32:25;5.72;;;3.60;;
70313;SDS011;57725;47.526;18.986;2023-03-23T03:35:00;5.50;;;4.20;;
70313;SDS011;57725;47.526;18.986;2023-03-23T03:37:32;6.38;;;4.40;;
70313;SDS011;57725;47.526;18.986;2023-03-23T03:40:02;7.53;;;3.92;;
70313;SDS011;57725;47.526;18.986;2023-03-23T03:42:39;5.97;;;4.47;;
70313;SDS011;57725;47.526;18.986;2023-03-23T03:45:10;8.02;;;4.60;;
70313;SDS011;57725;47.526;18.986;2023-03-23T03:47:42;7.28;;;4.35;;
70313;SDS011;57725;47.526;18.986;2023-03-23T03:50:10;6.35;;;4.20;;
70313;SDS011;57725;47.526;18.986;2023-03-23T03:52:41;7.28;;;4.25;;
70313;SDS011;57725;47.526;18.986;2023-03-23T03:55:07;6.90;;;4.00;;
70313;SDS011;57725;47.526;18.986;2023-03-23T03:57:34;8.80;;;3.90;;
70313;SDS011;57725;47.526;18.986;2023-03-23T03:59:59;6.35;;;3.88;;
70313;SDS011;57725;47.526;18.986;2023-03-23T04:02:37;6.32;;;4.20;;
70313;SDS011;57725;47.526;18.986;2023-03-23T04:05:08;5.97;;;4.05;;
70313;SDS011;57725;47.526;18.986;2023-03-23T04:07:35;6.18;;;4.00;;
70313;SDS011;57725;47.526;18.986;2023-03-23T04:10:06;10.07;;;4.10;;
70313;SDS011;57725;47.526;18.986;2023-03-23T04:12:35;6.38;;;4.25;;
70313;SDS011;57725;47.526;18.986;2023-03-23T04:15:09;7.13;;;3.85;;
70313;SDS011;57725;47.526;18.986;2023-03-23T04:17:38;6.90;;;3.90;;
70313;SDS011;57725;47.526;18.986;2023-03-23T04:20:06;6.13;;;3.95;;
70313;SDS011;57725;47.526;18.986;2023-03-23T04:22:37;5.57;;;3.90;;
70313;SDS011;57725;47.526;18.986;2023-03-23T04:25:05;7.03;;;4.40;;
70313;SDS011;57725;47.526;18.986;2023-03-23T04:27:32;7.55;;;4.60;;
70313;SDS011;57725;47.526;18.986;2023-03-23T04:29:59;7.28;;;4.90;;
70313;SDS011;57725;47.526;18.986;2023-03-23T04:32:25;7.32;;;4.72;;
70313;SDS011;57725;47.526;18.986;2023-03-23T04:34:56;7.72;;;4.30;;
70313;SDS011;57725;47.526;18.986;2023-03-23T04:37:26;7.80;;;4.38;;
70313;SDS011;57725;47.526;18.986;2023-03-23T04:39:55;5.97;;;4.13;;
70313;SDS011;57725;47.526;18.986;2023-03-23T04:42:30;6.25;;;3.80;;
70313;SDS011;57725;47.526;18.986;2023-03-23T04:44:56;7.10;;;4.00;;
70313;SDS011;57725;47.526;18.986;2023-03-23T04:47:23;6.45;;;4.20;;
70313;SDS011;57725;47.526;18.986;2023-03-23T04:49:55;6.47;;;4.20;;
70313;SDS011;57725;47.526;18.986;2023-03-23T04:52:27;5.97;;;4.30;;
70313;SDS011;57725;47.526;18.986;2023-03-23T04:54:53;7.78;;;4.85;;
70313;SDS011;57725;47.526;18.986;2023-03-23T04:57:21;6.93;;;3.97;;
70313;SDS011;57725;47.526;18.986;2023-03-23T04:59:47;8.75;;;4.60;;
70313;SDS011;57725;47.526;18.986;2023-03-23T05:02:18;6.43;;;4.40;;
70313;SDS011;57725;47.526;18.986;2023-03-23T05:04:43;6.40;;;3.83;;
70313;SDS011;57725;47.526;18.986;2023-03-23T05:07:10;7.18;;;4.70;;
70313;SDS011;57725;47.526;18.986;2023-03-23T05:09:38;6.28;;;4.22;;
70313;SDS011;57725;47.526;18.986;2023-03-23T05:12:07;7.00;;;4.53;;
70313;SDS011;57725;47.526;18.986;2023-03-23T05:14:34;7.68;;;4.43;;
70313;SDS011;57725;47.526;18.986;2023-03-23T05:17:08;6.55;;;4.63;;
70313;SDS011;57725;47.526;18.986;2023-03-23T05:19:34;7.35;;;4.57;;
70313;SDS011;57725;47.526;18.986;2023-03-23T05:22:03;6.72;;;4.47;;
70313;SDS011;57725;47.526;18.986;2023-03-23T05:24:32;6.90;;;4.25;;
70313;SDS011;57725;47.526;18.986;2023-03-23T05:27:00;8.70;;;4.35;;
70313;SDS011;57725;47.526;18.986;2023-03-23T05:29:29;6.65;;;4.30;;
70313;SDS011;57725;47.526;18.986;2023-03-23T05:32:01;6.18;;;4.13;;
70313;SDS011;57725;47.526;18.986;2023-03-23T05:34:32;5.38;;;3.85;;
70313;SDS011;57725;47.526;18.986;2023-03-23T05:37:03;6.32;;;4.45;;
70313;SDS011;57725;47.526;18.986;2023-03-23T05:39:29;5.90;;;3.78;;
70313;SDS011;57725;47.526;18.986;2023-03-23T05:41:58;7.05;;;4.55;;
70313;SDS011;57725;47.526;18.986;2023-03-23T05:44:24;7.50;;;4.47;;
70313;SDS011;57725;47.526;18.986;2023-03-23T05:46:49;6.28;;;4.07;;
70313;SDS011;57725;47.526;18.986;2023-03-23T05:49:15;5.68;;;4.13;;
70313;SDS011;57725;47.526;18.986;2023-03-23T05:51:42;6.88;;;4.28;;
70313;SDS011;57725;47.526;18.986;2023-03-23T05:54:13;5.65;;;4.25;;
70313;SDS011;57725;47.526;18.986;2023-03-23T05:56:39;6.75;;;4.70;;
70313;SDS011;57725;47.526;18.986;2023-03-23T05:59:10;7.03;;;4.63;;
70313;SDS011;57725;47.526;18.986;2023-03-23T06:01:36;4.70;;;3.92;;
70313;SDS011;57725;47.526;18.986;2023-03-23T06:04:02;7.00;;;4.82;;
70313;SDS011;57725;47.526;18.986;2023-03-23T06:06:28;6.85;;;4.63;;
70313;SDS011;57725;47.526;18.986;2023-03-23T06:08:55;6.85;;;4.43;;
70313;SDS011;57725;47.526;18.986;2023-03-23T06:11:24;6.07;;;4.20;;
70313;SDS011;57725;47.526;18.986;2023-03-23T06:13:52;6.70;;;4.18;;
70313;SDS011;57725;47.526;18.986;2023-03-23T06:16:18;5.68;;;4.38;;
70313;SDS011;57725;47.526;18.986;2023-03-23T06:18:48;7.22;;;4.22;;
70313;SDS011;57725;47.526;18.986;2023-03-23T06:21:14;6.13;;;4.20;;
70313;SDS011;57725;47.526;18.986;2023-03-23T06:23:40;7.88;;;5.07;;
70313;SDS011;57725;47.526;18.986;2023-03-23T06:26:08;7.03;;;4.88;;
70313;SDS011;57725;47.526;18.986;2023-03-23T06:28:35;7.43;;;4.55;;
70313;SDS011;57725;47.526;18.986;2023-03-23T06:31:03;6.22;;;4.70;;
70313;SDS011;57725;47.526;18.986;2023-03-23T06:33:34;7.13;;;4.80;;
70313;SDS011;57725;47.526;18.986;2023-03-23T06:36:02;7.68;;;4.70;;
70313;SDS011;57725;47.526;18.986;2023-03-23T06:38:29;7.13;;;4.70;;
70313;SDS011;57725;47.526;18.986;2023-03-23T06:40:55;6.85;;;5.10;;
70313;SDS011;57725;47.526;18.986;2023-03-23T06:43:22;8.15;;;4.63;;
70313;SDS011;57725;47.526;18.986;2023-03-23T06:45:47;7.25;;;4.88;;
70313;SDS011;57725;47.526;18.986;2023-03-23T06:48:13;8.25;;;4.95;;
70313;SDS011;57725;47.526;18.986;2023-03-23T06:50:41;9.32;;;5.10;;
70313;SDS011;57725;47.526;18.986;2023-03-23T06:53:10;7.25;;;4.90;;
70313;SDS011;57725;47.526;18.986;2023-03-23T06:55:35;6.78;;;4.72;;
70313;SDS011;57725;47.526;18.986;2023-03-23T06:58:02;7.07;;;5.00;;
70313;SDS011;57725;47.526;18.986;2023-03-23T07:00:31;7.20;;;5.15;;
70313;SDS011;57725;47.526;18.986;2023-03-23T07:02:58;7.30;;;5.18;;
70313;SDS011;57725;47.526;18.986;2023-03-23T07:05:26;8.88;;;5.78;;
70313;SDS011;57725;47.526;18.986;2023-03-23T07:07:58;9.25;;;5.75;;
70313;SDS011;57725;47.526;18.986;2023-03-23T07:10:26;7.80;;;5.68;;
70313;SDS011;57725;47.526;18.986;2023-03-23T07:12:54;8.55;;;5.43;;
70313;SDS011;57725;47.526;18.986;2023-03-23T07:15:20;6.57;;;5.40;;
70313;SDS011;57725;47.526;18.986;2023-03-23T07:17:46;8.73;;;5.97;;
70313;SDS011;57725;47.526;18.986;2023-03-23T07:20:12;7.85;;;5.55;;
70313;SDS011;57725;47.526;18.986;2023-03-23T07:22:38;7.82;;;5.38;;
70313;SDS011;57725;47.526;18.986;2023-03-23T07:25:03;9.20;;;6.22;;
70313;SDS011;57725;47.526;18.986;2023-03-23T07:27:30;8.70;;;5.20;;
70313;SDS011;57725;47.526;18.986;2023-03-23T07:29:55;8.15;;;5.47;;
70313;SDS011;57725;47.526;18.986;2023-03-23T07:32:23;7.80;;;5.15;;
70313;SDS011;57725;47.526;18.986;2023-03-23T07:34:50;8.07;;;5.80;;
70313;SDS011;57725;47.526;18.986;2023-03-23T07:37:18;8.50;;;5.95;;
70313;SDS011;57725;47.526;18.986;2023-03-23T07:39:43;8.82;;;6.10;;
70313;SDS011;57725;47.526;18.986;2023-03-23T07:42:09;8.95;;;5.82;;
70313;SDS011;57725;47.526;18.986;2023-03-23T07:44:34;8.48;;;5.43;;
70313;SDS011;57725;47.526;18.986;2023-03-23T07:47:02;9.05;;;5.93;;
70313;SDS011;57725;47.526;18.986;2023-03-23T07:49:30;9.68;;;6.03;;
70313;SDS011;57725;47.526;18.986;2023-03-23T07:51:56;8.35;;;6.03;;
70313;SDS011;57725;47.526;18.986;2023-03-23T07:54:27;7.53;;;6.18;;
70313;SDS011;57725;47.526;18.986;2023-03-23T07:56:53;8.50;;;5.70;;
70313;SDS011;57725;47.526;18.986;2023-03-23T07:59:18;8.43;;;5.88;;
70313;SDS011;57725;47.526;18.986;2023-03-23T08:01:46;7.95;;;6.10;;
70313;SDS011;57725;47.526;18.986;2023-03-23T08:04:15;10.23;;;6.35;;
70313;SDS011;57725;47.526;18.986;2023-03-23T08:06:43;10.10;;;6.50;;
70313;SDS011;57725;47.526;18.986;2023-03-23T08:09:12;9.48;;;6.85;;
70313;SDS011;57725;47.526;18.986;2023-03-23T08:11:38;8.85;;;6.38;;
70313;SDS011;57725;47.526;18.986;2023-03-23T08:14:05;8.25;;;6.00;;
70313;SDS011;57725;47.526;18.986;2023-03-23T08:16:34;11.30;;;6.90;;
70313;SDS011;57725;47.526;18.986;2023-03-23T08:18:59;8.68;;;6.28;;
70313;SDS011;57725;47.526;18.986;2023-03-23T08:21:25;10.52;;;6.28;;
70313;SDS011;57725;47.526;18.986;2023-03-23T08:23:51;8.65;;;6.18;;
70313;SDS011;57725;47.526;18.986;2023-03-23T08:26:19;8.68;;;6.30;;
70313;SDS011;57725;47.526;18.986;2023-03-23T08:28:47;9.65;;;6.90;;
70313;SDS011;57725;47.526;18.986;2023-03-23T08:31:13;9.45;;;6.82;;
70313;SDS011;57725;47.526;18.986;2023-03-23T08:33:40;10.18;;;7.07;;
70313;SDS011;57725;47.526;18.986;2023-03-23T08:36:08;8.25;;;6.55;;
70313;SDS011;57725;47.526;18.986;2023-03-23T08:38:34;10.25;;;7.15;;
70313;SDS011;57725;47.526;18.986;2023-03-23T08:41:03;9.02;;;7.00;;
70313;SDS011;57725;47.526;18.986;2023-03-23T08:43:30;9.60;;;6.38;;
70313;SDS011;57725;47.526;18.986;2023-03-23T08:45:58;10.30;;;7.25;;
70313;SDS011;57725;47.526;18.986;2023-03-23T08:48:23;10.70;;;7.07;;
70313;SDS011;57725;47.526;18.986;2023-03-23T08:50:49;8.05;;;6.20;;
70313;SDS011;57725;47.526;18.986;2023-03-23T08:53:17;8.82;;;6.30;;
70313;SDS011;57725;47.526;18.986;2023-03-23T08:55:43;10.13;;;6.40;;
70313;SDS011;57725;47.526;18.986;2023-03-23T08:58:09;8.75;;;6.03;;
70313;SDS011;57725;47.526;18.986;2023-03-23T09:00:34;10.65;;;6.68;;
70313;SDS011;57725;47.526;18.986;2023-03-23T09:03:00;8.52;;;5.75;;
70313;SDS011;57725;47.526;18.986;2023-03-23T09:05:26;8.52;;;6.15;;
70313;SDS011;57725;47.526;18.986;2023-03-23T09:07:55;8.05;;;5.63;;
70313;SDS011;57725;47.526;18.986;2023-03-23T09:10:24;7.90;;;5.78;;
70313;SDS011;57725;47.526;18.986;2023-03-23T09:12:51;10.27;;;6.15;;
70313;SDS011;57725;47.526;18.986;2023-03-23T09:15:18;7.40;;;5.88;;
70313;SDS011;57725;47.526;18.986;2023-03-23T09:17:48;9.25;;;5.82;;
70313;SDS011;57725;47.526;18.986;2023-03-23T09:20:17;9.10;;;5.97;;
70313;SDS011;57725;47.526;18.986;2023-03-23T09:22:46;9.57;;;5.70;;
70313;SDS011;57725;47.526;18.986;2023-03-23T09:25:15;10.93;;;5.65;;
70313;SDS011;57725;47.526;18.986;2023-03-23T09:27:44;8.38;;;5.68;;
70313;SDS011;57725;47.526;18.986;2023-03-23T09:30:12;7.45;;;5.55;;
70313;SDS011;57725;47.526;18.986;2023-03-23T09:32:43;7.85;;;5.75;;
70313;SDS011;57725;47.526;18.986;2023-03-23T09:35:15;6.50;;;5.35;;
70313;SDS011;57725;47.526;18.986;2023-03-23T09:37:41;8.35;;;6.03;;
70313;SDS011;57725;47.526;18.986;2023-03-23T09:40:19;9.10;;;5.88;;
70313;SDS011;57725;47.526;18.986;2023-03-23T09:42:48;8.63;;;5.82;;
70313;SDS011;57725;47.526;18.986;2023-03-23T09:50:51;9.02;;;5.63;;
70313;SDS011;57725;47.526;18.986;2023-03-23T09:53:24;8.20;;;5.65;;
70313;SDS011;57725;47.526;18.986;2023-03-23T09:56:00;8.68;;;6.22;;
70313;SDS011;57725;47.526;18.986;2023-03-23T09:58:31;8.48;;;6.28;;
70313;SDS011;57725;47.526;18.986;2023-03-23T10:01:06;8.65;;;5.70;;
70313;SDS011;57725;47.526;18.986;2023-03-23T10:03:42;9.20;;;6.30;;
70313;SDS011;57725;47.526;18.986;2023-03-23T10:06:12;7.95;;;6.05;;
70313;SDS011;57725;47.526;18.986;2023-03-23T10:15:00;8.82;;;5.97;;
70313;SDS011;57725;47.526;18.986;2023-03-23T10:22:52;8.38;;;6.72;;
70313;SDS011;57725;47.526;18.986;2023-03-23T10:25:26;9.23;;;6.03;;
70313;SDS011;57725;47.526;18.986;2023-03-23T10:33:05;9.38;;;6.85;;
70313;SDS011;57725;47.526;18.986;2023-03-23T10:35:47;9.70;;;6.55;;
70313;SDS011;57725;47.526;18.986;2023-03-23T10:38:35;8.38;;;6.20;;
70313;SDS011;57725;47.526;18.986;2023-03-23T10:41:09;9.82;;;6.53;;
70313;SDS011;57725;47.526;18.986;2023-03-23T10:43:37;9.48;;;6.90;;
70313;SDS011;57725;47.526;18.986;2023-03-23T10:46:22;9.05;;;6.35;;
70313;SDS011;57725;47.526;18.986;2023-03-23T10:48:54;9.98;;;7.10;;
70313;SDS011;57725;47.526;18.986;2023-03-23T10:51:36;8.88;;;6.80;;
70313;SDS011;57725;47.526;18.986;2023-03-23T10:54:04;10.27;;;6.43;;
70313;SDS011;57725;47.526;18.986;2023-03-23T10:56:37;10.50;;;7.72;;
70313;SDS011;57725;47.526;18.986;2023-03-23T10:59:12;9.70;;;6.63;;
70313;SDS011;57725;47.526;18.986;2023-03-23T11:01:37;10.93;;;7.63;;
70313;SDS011;57725;47.526;18.986;2023-03-23T11:04:10;9.55;;;6.90;;
70313;SDS011;57725;47.526;18.986;2023-03-23T11:06:38;11.10;;;7.00;;
70313;SDS011;57725;47.526;18.986;2023-03-23T11:11:39;10.63;;;7.97;;
70313;SDS011;57725;47.526;18.986;2023-03-23T11:14:19;10.60;;;7.47;;
70313;SDS011;57725;47.526;18.986;2023-03-23T11:16:57;8.98;;;6.78;;
70313;SDS011;57725;47.526;18.986;2023-03-23T11:19:34;8.90;;;6.75;;
70313;SDS011;57725;47.526;18.986;2023-03-23T11:24:31;10.77;;;6.47;;
70313;SDS011;57725;47.526;18.986;2023-03-23T11:26:58;10.50;;;7.75;;
70313;SDS011;57725;47.526;18.986;2023-03-23T11:29:25;10.75;;;6.72;;
70313;SDS011;57725;47.526;18.986;2023-03-23T11:32:00;9.52;;;6.40;;
70313;SDS011;57725;47.526;18.986;2023-03-23T11:34:31;7.78;;;5.97;;
70313;SDS011;57725;47.526;18.986;2023-03-23T11:37:03;8.52;;;6.38;;
70313;SDS011;57725;47.526;18.986;2023-03-23T11:39:35;9.15;;;6.10;;
70313;SDS011;57725;47.526;18.986;2023-03-23T11:42:17;7.90;;;5.80;;
70313;SDS011;57725;47.526;18.986;2023-03-23T11:44:45;9.37;;;6.23;;
70313;SDS011;57725;47.526;18.986;2023-03-23T11:47:20;7.97;;;6.10;;
70313;SDS011;57725;47.526;18.986;2023-03-23T11:58:16;7.45;;;5.90;;
70313;SDS011;57725;47.526;18.986;2023-03-23T12:00:49;6.68;;;5.30;;
70313;SDS011;57725;47.526;18.986;2023-03-23T12:03:20;7.00;;;4.97;;
70313;SDS011;57725;47.526;18.986;2023-03-23T12:06:09;7.18;;;5.35;;
70313;SDS011;57725;47.526;18.986;2023-03-23T12:17:46;5.68;;;4.40;;
70313;SDS011;57725;47.526;18.986;2023-03-23T12:23:08;6.38;;;4.65;;
70313;SDS011;57725;47.526;18.986;2023-03-23T12:36:53;6.10;;;4.13;;
70313;SDS011;57725;47.526;18.986;2023-03-23T12:44:56;5.68;;;4.40;;
70313;SDS011;57725;47.526;18.986;2023-03-23T12:47:43;6.35;;;4.28;;
70313;SDS011;57725;47.526;18.986;2023-03-23T12:50:25;7.18;;;4.22;;
70313;SDS011;57725;47.526;18.986;2023-03-23T12:53:06;5.18;;;4.07;;
70313;SDS011;57725;47.526;18.986;2023-03-23T12:55:47;7.03;;;3.70;;
70313;SDS011;57725;47.526;18.986;2023-03-23T12:58:21;5.32;;;3.70;;
70313;SDS011;57725;47.526;18.986;2023-03-23T13:06:41;4.75;;;3.65;;
70313;SDS011;57725;47.526;18.986;2023-03-23T13:09:14;4.60;;;3.55;;
70313;SDS011;57725;47.526;18.986;2023-03-23T13:11:45;5.15;;;3.20;;
70313;SDS011;57725;47.526;18.986;2023-03-23T13:14:27;6.45;;;3.47;;
70313;SDS011;57725;47.526;18.986;2023-03-23T13:17:03;5.55;;;3.88;;
70313;SDS011;57725;47.526;18.986;2023-03-23T13:22:29;5.22;;;1.80;;
70313;SDS011;57725;47.526;18.986;2023-03-23T13:25:13;6.18;;;2.05;;
70313;SDS011;57725;47.526;18.986;2023-03-23T13:27:42;10.45;;;1.92;;
70313;SDS011;57725;47.526;18.986;2023-03-23T13:30:17;14.00;;;2.88;;
70313;SDS011;57725;47.526;18.986;2023-03-23T13:32:49;4.85;;;1.70;;
70313;SDS011;57725;47.526;18.986;2023-03-23T13:35:18;5.72;;;1.83;;
70313;SDS011;57725;47.526;18.986;2023-03-23T13:37:49;3.30;;;1.80;;
70313;SDS011;57725;47.526;18.986;2023-03-23T13:40:26;6.65;;;1.80;;
70313;SDS011;57725;47.526;18.986;2023-03-23T13:43:03;6.15;;;1.67;;
70313;SDS011;57725;47.526;18.986;2023-03-23T13:50:54;4.97;;;1.85;;
70313;SDS011;57725;47.526;18.986;2023-03-23T13:53:29;6.07;;;2.10;;
70313;SDS011;57725;47.526;18.986;2023-03-23T13:58:48;2.97;;;1.58;;
70313;SDS011;57725;47.526;18.986;2023-03-23T14:01:19;3.72;;;1.73;;
70313;SDS011;57725;47.526;18.986;2023-03-23T14:03:58;11.63;;;1.80;;
70313;SDS011;57725;47.526;18.986;2023-03-23T14:06:26;1.95;;;1.48;;
70313;SDS011;57725;47.526;18.986;2023-03-23T14:09:11;3.47;;;1.80;;
70313;SDS011;57725;47.526;18.986;2023-03-23T14:11:48;3.28;;;1.73;;
70313;SDS011;57725;47.526;18.986;2023-03-23T14:14:23;5.20;;;2.22;;
70313;SDS011;57725;47.526;18.986;2023-03-23T14:16:52;5.63;;;2.00;;
70313;SDS011;57725;47.526;18.986;2023-03-23T14:19:22;5.63;;;1.73;;
70313;SDS011;57725;47.526;18.986;2023-03-23T14:21:56;6.07;;;2.33;;
70313;SDS011;57725;47.526;18.986;2023-03-23T14:24:30;4.10;;;1.77;;
70313;SDS011;57725;47.526;18.986;2023-03-23T14:29:32;5.90;;;2.38;;
70313;SDS011;57725;47.526;18.986;2023-03-23T14:32:00;5.10;;;1.90;;
70313;SDS011;57725;47.526;18.986;2023-03-23T14:34:27;3.47;;;2.10;;
70313;SDS011;57725;47.526;18.986;2023-03-23T14:36:56;6.30;;;1.90;;
70313;SDS011;57725;47.526;18.986;2023-03-23T14:41:56;3.95;;;1.63;;
70313;SDS011;57725;47.526;18.986;2023-03-23T14:44:30;6.95;;;1.42;;
70313;SDS011;57725;47.526;18.986;2023-03-23T14:46:58;4.13;;;1.63;;
70313;SDS011;57725;47.526;18.986;2023-03-23T14:49:36;4.55;;;2.03;;
70313;SDS011;57725;47.526;18.986;2023-03-23T14:54:36;2.65;;;1.77;;
70313;SDS011;57725;47.526;18.986;2023-03-23T14:57:25;5.80;;;2.80;;
70313;SDS011;57725;47.526;18.986;2023-03-23T14:59:49;5.93;;;3.08;;
70313;SDS011;57725;47.526;18.986;2023-03-23T15:02:34;4.22;;;2.00;;
70313;SDS011;57725;47.526;18.986;2023-03-23T15:05:08;4.50;;;2.45;;
70313;SDS011;57725;47.526;18.986;2023-03-23T15:07:40;9.77;;;1.92;;
70313;SDS011;57725;47.526;18.986;2023-03-23T15:10:13;3.85;;;2.20;;
70313;SDS011;57725;47.526;18.986;2023-03-23T15:12:46;4.07;;;1.88;;
70313;SDS011;57725;47.526;18.986;2023-03-23T15:15:21;8.32;;;2.33;;
70313;SDS011;57725;47.526;18.986;2023-03-23T15:17:52;4.88;;;2.13;;
70313;SDS011;57725;47.526;18.986;2023-03-23T15:20:25;7.28;;;2.47;;
70313;SDS011;57725;47.526;18.986;2023-03-23T15:22:56;6.43;;;1.48;;
70313;SDS011;57725;47.526;18.986;2023-03-23T15:28:06;8.23;;;2.75;;
70313;SDS011;57725;47.526;18.986;2023-03-23T15:30:46;4.20;;;1.50;;
70313;SDS011;57725;47.526;18.986;2023-03-23T15:35:41;2.78;;;1.60;;
70313;SDS011;57725;47.526;18.986;2023-03-23T15:38:17;3.45;;;2.30;;
70313;SDS011;57725;47.526;18.986;2023-03-23T15:40:49;6.38;;;1.90;;
70313;SDS011;57725;47.526;18.986;2023-03-23T15:43:26;5.47;;;2.15;;
70313;SDS011;57725;47.526;18.986;2023-03-23T15:48:19;7.68;;;2.17;;
70313;SDS011;57725;47.526;18.986;2023-03-23T15:50:48;9.30;;;3.28;;
70313;SDS011;57725;47.526;18.986;2023-03-23T15:53:31;7.57;;;2.88;;
70313;SDS011;57725;47.526;18.986;2023-03-23T15:56:07;5.70;;;2.80;;
70313;SDS011;57725;47.526;18.986;2023-03-23T15:58:39;6.43;;;3.08;;
70313;SDS011;57725;47.526;18.986;2023-03-23T16:01:15;6.13;;;2.63;;
70313;SDS011;57725;47.526;18.986;2023-03-23T16:03:45;8.15;;;3.05;;
70313;SDS011;57725;47.526;18.986;2023-03-23T16:06:14;5.15;;;2.60;;
70313;SDS011;57725;47.526;18.986;2023-03-23T16:08:44;11.32;;;3.20;;
70313;SDS011;57725;47.526;18.986;2023-03-23T16:11:10;6.30;;;2.83;;
70313;SDS011;57725;47.526;18.986;2023-03-23T16:13:37;7.95;;;3.10;;
70313;SDS011;57725;47.526;18.986;2023-03-23T16:16:06;5.03;;;3.28;;
70313;SDS011;57725;47.526;18.986;2023-03-23T16:18:39;12.75;;;3.65;;
70313;SDS011;57725;47.526;18.986;2023-03-23T16:21:04;5.13;;;3.00;;
70313;SDS011;57725;47.526;18.986;2023-03-23T16:23:31;10.20;;;3.42;;
70313;SDS011;57725;47.526;18.986;2023-03-23T16:25:56;4.80;;;2.72;;
70313;SDS011;57725;47.526;18.986;2023-03-23T16:28:21;5.05;;;3.13;;
70313;SDS011;57725;47.526;18.986;2023-03-23T16:30:49;13.85;;;3.42;;
70313;SDS011;57725;47.526;18.986;2023-03-23T16:33:15;6.45;;;3.30;;
70313;SDS011;57725;47.526;18.986;2023-03-23T16:35:40;20.55;;;14.50;;
70313;SDS011;57725;47.526;18.986;2023-03-23T16:38:12;18.63;;;9.77;;
70313;SDS011;57725;47.526;18.986;2023-03-23T16:40:42;19.70;;;6.33;;
70313;SDS011;57725;47.526;18.986;2023-03-23T16:43:11;16.30;;;7.03;;
70313;SDS011;57725;47.526;18.986;2023-03-23T16:45:37;11.77;;;7.03;;
70313;SDS011;57725;47.526;18.986;2023-03-23T16:48:07;11.43;;;7.13;;
70313;SDS011;57725;47.526;18.986;2023-03-23T16:50:33;8.73;;;6.18;;
70313;SDS011;57725;47.526;18.986;2023-03-23T16:53:00;13.98;;;6.95;;
70313;SDS011;57725;47.526;18.986;2023-03-23T16:55:31;15.00;;;6.80;;
70313;SDS011;57725;47.526;18.986;2023-03-23T16:57:57;11.10;;;6.88;;
70313;SDS011;57725;47.526;18.986;2023-03-23T17:00:25;10.32;;;6.75;;